createdAt,value
2022-09-28T00:01:26.841Z,-0.94
2022-09-28T00:04:00.506Z,-1.00
2022-09-28T00:06:31.138Z,-0.85
2022-09-28T00:08:59.816Z,-0.77
2022-09-28T00:11:28.814Z,-1.29
2022-09-28T00:14:04.515Z,-0.79
2022-09-28T00:16:37.593Z,-0.87
2022-09-28T00:19:07.146Z,-0.83
2022-09-28T00:21:38.867Z,-0.89
2022-09-28T00:24:17.857Z,-0.93
2022-09-28T00:26:55.336Z,-0.97
2022-09-28T00:29:30.150Z,-1.04
2022-09-28T00:32:03.684Z,-0.90
2022-09-28T00:34:38.375Z,-1.10
2022-09-28T00:37:15.041Z,-0.99
2022-09-28T00:39:45.466Z,-1.22
2022-09-28T00:42:23.082Z,-0.85
2022-09-28T00:44:52.679Z,-0.83
2022-09-28T00:47:32.047Z,-0.88
2022-09-28T00:50:15.627Z,-0.95
2022-09-28T00:52:47.652Z,-0.85
2022-09-28T00:55:26.928Z,-1.03
2022-09-28T00:57:59.007Z,-0.96
2022-09-28T01:00:28.530Z,-1.13
2022-09-28T01:02:59.284Z,-1.00
2022-09-28T01:05:29.550Z,-1.12
2022-09-28T01:07:59.338Z,-1.04
2022-09-28T01:10:30.086Z,-1.09
2022-09-28T01:13:00.033Z,-1.09
2022-09-28T01:15:31.952Z,-1.00
2022-09-28T01:18:23.631Z,-1.25
2022-09-28T01:21:06.040Z,-1.04
2022-09-28T01:23:40.835Z,-0.82
2022-09-28T01:26:39.890Z,-0.84
2022-09-28T01:29:20.780Z,-1.11
2022-09-28T01:31:57.521Z,-0.95
2022-09-28T01:34:31.775Z,-0.99
2022-09-28T01:37:05.301Z,-1.12
2022-09-28T01:39:42.628Z,-1.05
2022-09-28T01:42:22.043Z,-0.97
2022-09-28T01:44:53.888Z,-1.13
2022-09-28T01:47:25.117Z,-1.19
2022-09-28T01:50:02.227Z,-0.97
2022-09-28T01:52:41.373Z,-1.11
2022-09-28T01:55:20.781Z,-0.97
2022-09-28T01:58:34.206Z,-0.98
2022-09-28T02:01:14.786Z,-1.02
2022-09-28T02:03:56.812Z,-0.96
2022-09-28T02:06:37.021Z,-1.04
2022-09-28T02:09:17.861Z,-1.07
2022-09-28T02:11:54.183Z,-1.05
2022-09-28T02:14:24.077Z,-0.98
2022-09-28T02:16:55.327Z,-1.10
2022-09-28T02:19:31.940Z,-1.10
2022-09-28T02:22:06.726Z,-0.96
2022-09-28T02:24:51.950Z,-1.04
2022-09-28T02:27:52.175Z,-0.90
2022-09-28T02:30:21.487Z,-0.95
2022-09-28T02:32:55.665Z,-0.96
2022-09-28T02:35:25.288Z,-0.92
2022-09-28T02:37:55.897Z,-0.95
2022-09-28T02:40:30.116Z,-0.88
2022-09-28T02:43:23.526Z,-0.76
2022-09-28T02:46:08.278Z,-0.69
2022-09-28T02:49:20.908Z,-0.89
2022-09-28T02:52:23.269Z,-0.74
2022-09-28T02:55:20.252Z,-0.63
2022-09-28T02:58:36.998Z,-0.61
2022-09-28T03:01:16.462Z,-0.58
2022-09-28T03:04:22.283Z,-0.52
2022-09-28T03:07:08.736Z,-0.61
2022-09-28T03:10:19.551Z,-0.49
2022-09-28T03:12:49.991Z,-0.55
2022-09-28T03:15:25.801Z,-0.53
2022-09-28T03:17:56.717Z,-0.72
2022-09-28T03:20:27.356Z,-0.36
2022-09-28T03:23:22.749Z,-0.44
2022-09-28T03:25:45.082Z,-0.26
2022-09-28T03:28:16.348Z,-0.22
2022-09-28T03:30:45.031Z,-0.19
2022-09-28T03:33:13.718Z,-0.19
2022-09-28T03:35:43.171Z,-0.48
2022-09-28T03:38:11.950Z,-0.30
2022-09-28T03:40:40.984Z,-0.08
2022-09-28T03:43:09.583Z,-0.05
2022-09-28T03:45:38.449Z,-0.13
2022-09-28T03:48:06.905Z,0.16
2022-09-28T03:50:35.645Z,0.08
2022-09-28T03:53:06.587Z,0.20
2022-09-28T03:55:35.147Z,0.24
2022-09-28T03:58:03.918Z,0.39
2022-09-28T04:00:33.159Z,0.33
2022-09-28T04:03:01.806Z,0.55
2022-09-28T04:05:30.457Z,0.48
2022-09-28T04:07:59.500Z,0.56
2022-09-28T04:10:28.286Z,0.50
2022-09-28T04:13:00.051Z,0.59
2022-09-28T04:15:28.816Z,0.51
2022-09-28T04:17:57.116Z,0.52
2022-09-28T04:20:48.768Z,0.73
2022-09-28T04:23:18.386Z,0.69
2022-09-28T04:25:52.886Z,0.83
2022-09-28T04:28:39.907Z,0.86
2022-09-28T04:31:13.995Z,0.83
2022-09-28T04:33:43.089Z,0.78
2022-09-28T04:36:12.182Z,0.94
2022-09-28T04:38:52.914Z,0.92
2022-09-28T04:41:24.851Z,1.11
2022-09-28T04:43:53.713Z,1.01
2022-09-28T04:46:22.463Z,0.99
2022-09-28T04:49:01.077Z,0.92
2022-09-28T04:51:46.864Z,0.97
2022-09-28T04:54:15.298Z,1.03
2022-09-28T04:56:44.033Z,1.10
2022-09-28T04:59:14.365Z,0.98
2022-09-28T05:01:44.231Z,1.21
2022-09-28T05:04:34.264Z,1.27
2022-09-28T05:07:27.536Z,1.17
2022-09-28T05:09:56.676Z,1.11
2022-09-28T05:12:25.220Z,1.15
2022-09-28T05:14:53.909Z,1.10
2022-09-28T05:17:22.529Z,1.08
2022-09-28T05:20:09.966Z,1.07
2022-09-28T05:22:38.474Z,1.05
2022-09-28T05:25:09.666Z,1.12
2022-09-28T05:27:56.766Z,1.07
2022-09-28T05:30:39.020Z,1.14
2022-09-28T05:33:35.481Z,1.13
2022-09-28T05:36:11.871Z,1.15
2022-09-28T05:38:42.840Z,1.36
2022-09-28T05:41:11.372Z,1.23
2022-09-28T05:43:40.562Z,1.37
2022-09-28T05:46:09.170Z,1.46
2022-09-28T05:48:41.084Z,1.45
2022-09-28T05:51:10.909Z,1.39
2022-09-28T05:53:39.509Z,1.59
2022-09-28T05:56:08.167Z,1.42
2022-09-28T05:58:39.746Z,1.47
2022-09-28T06:01:10.206Z,1.58
2022-09-28T06:03:38.942Z,1.50
2022-09-28T06:06:08.342Z,1.32
2022-09-28T06:08:37.201Z,1.54
2022-09-28T06:11:22.277Z,1.62
2022-09-28T06:13:56.197Z,1.51
2022-09-28T06:16:27.717Z,1.76
2022-09-28T06:18:56.526Z,1.78
2022-09-28T06:21:49.558Z,1.66
2022-09-28T06:24:18.464Z,1.74
2022-09-28T06:26:47.709Z,1.46
2022-09-28T06:29:20.065Z,1.70
2022-09-28T06:31:48.850Z,1.39
2022-09-28T06:34:19.799Z,1.41
2022-09-28T06:36:49.675Z,1.15
2022-09-28T06:39:18.797Z,1.42
2022-09-28T06:41:47.508Z,1.19
2022-09-28T06:44:18.995Z,0.97
2022-09-28T06:47:06.221Z,1.27
2022-09-28T06:49:57.728Z,1.20
2022-09-28T06:52:46.598Z,1.20
2022-09-28T06:55:35.387Z,0.96
2022-09-28T06:58:06.842Z,1.23
2022-09-28T07:00:36.946Z,1.01
2022-09-28T07:03:12.675Z,0.49
2022-09-28T07:05:59.627Z,0.88
2022-09-28T07:08:59.296Z,0.83
2022-09-28T07:12:05.757Z,0.66
2022-09-28T07:14:48.589Z,0.57
2022-09-28T07:17:18.457Z,0.33
2022-09-28T07:19:47.200Z,0.37
2022-09-28T07:22:18.762Z,0.45
2022-09-28T07:24:49.504Z,0.45
2022-09-28T07:27:40.321Z,0.55
2022-09-28T07:30:38.447Z,0.47
2022-09-28T07:33:20.906Z,0.72
2022-09-28T07:35:56.618Z,0.80
2022-09-28T07:38:28.850Z,0.69
2022-09-28T07:41:13.314Z,0.75
2022-09-28T07:43:48.484Z,0.56
2022-09-28T07:46:18.315Z,0.88
2022-09-28T07:48:56.922Z,0.94
2022-09-28T07:51:37.090Z,0.99
2022-09-28T07:54:23.781Z,0.81
2022-09-28T07:57:10.903Z,0.85
2022-09-28T07:59:56.780Z,0.70
2022-09-28T08:02:45.355Z,0.95
2022-09-28T08:05:18.737Z,1.00
2022-09-28T08:07:47.878Z,1.07
2022-09-28T08:10:17.994Z,0.74
2022-09-28T08:13:08.847Z,0.77
2022-09-28T08:15:56.143Z,1.08
2022-09-28T08:18:51.286Z,1.12
2022-09-28T08:21:38.242Z,1.25
2022-09-28T08:24:07.193Z,1.30
2022-09-28T08:26:35.777Z,1.35
2022-09-28T08:29:04.878Z,1.31
2022-09-28T08:32:09.896Z,1.35
2022-09-28T08:35:00.949Z,1.25
2022-09-28T08:37:55.479Z,0.81
2022-09-28T08:41:19.092Z,1.08
2022-09-28T08:44:25.632Z,0.88
2022-09-28T08:47:45.108Z,0.75
2022-09-28T08:51:00.457Z,0.49
2022-09-28T08:54:29.994Z,0.69
2022-09-28T08:57:08.050Z,0.59
2022-09-28T08:59:48.913Z,0.23
2022-09-28T09:02:35.239Z,-0.01
2022-09-28T09:05:25.390Z,0.30
2022-09-28T09:08:13.683Z,0.33
2022-09-28T09:11:03.412Z,0.35
2022-09-28T09:14:17.320Z,0.18
2022-09-28T09:17:01.160Z,0.41
2022-09-28T09:19:59.966Z,0.31
2022-09-28T09:23:13.076Z,0.56
2022-09-28T09:25:53.228Z,0.65
2022-09-28T09:29:23.952Z,0.69
2022-09-28T09:32:16.311Z,0.87
2022-09-28T09:35:13.988Z,0.46
2022-09-28T09:38:34.762Z,1.14
2022-09-28T09:41:36.264Z,1.07
2022-09-28T09:44:48.673Z,1.02
2022-09-28T09:48:07.781Z,1.15
2022-09-28T09:51:02.800Z,0.81
2022-09-28T09:53:44.852Z,1.18
2022-09-28T09:56:29.421Z,1.15
2022-09-28T09:59:38.929Z,1.23
2022-09-28T10:02:28.478Z,1.31
2022-09-28T10:05:28.363Z,1.42
2022-09-28T10:08:05.538Z,1.50
2022-09-28T10:10:43.805Z,1.40
2022-09-28T10:13:14.302Z,1.31
2022-09-28T10:15:48.289Z,0.96
2022-09-28T10:18:26.956Z,1.07
2022-09-28T10:21:16.011Z,1.23
2022-09-28T10:24:03.341Z,0.93
2022-09-28T10:26:46.640Z,1.02
2022-09-28T10:29:26.889Z,1.13
2022-09-28T10:31:56.354Z,1.10
2022-09-28T10:34:32.376Z,1.03
2022-09-28T10:37:12.090Z,1.12
2022-09-28T10:39:59.967Z,0.84
2022-09-28T10:42:37.155Z,0.92
2022-09-28T10:45:24.596Z,0.78
2022-09-28T10:47:53.250Z,0.94
2022-09-28T10:50:26.505Z,0.89
2022-09-28T10:53:15.653Z,0.73
2022-09-28T10:56:27.844Z,0.60
2022-09-28T10:59:29.996Z,0.53
2022-09-28T11:02:30.391Z,0.58
2022-09-28T11:05:08.463Z,0.54
2022-09-28T11:07:48.997Z,0.17
2022-09-28T11:10:26.835Z,0.49
2022-09-28T11:13:00.722Z,0.29
2022-09-28T11:15:34.434Z,0.26
2022-09-28T11:18:32.147Z,0.28
2022-09-28T11:21:14.888Z,0.10
2022-09-28T11:24:27.684Z,0.14
2022-09-28T11:27:02.806Z,-0.06
2022-09-28T11:29:52.119Z,-0.09
2022-09-28T11:32:46.462Z,-0.07
2022-09-28T11:35:32.679Z,0.01
2022-09-28T11:38:54.455Z,0.23
2022-09-28T11:42:04.598Z,0.18
2022-09-28T11:44:47.130Z,0.22
2022-09-28T11:47:48.684Z,0.23
2022-09-28T11:50:24.380Z,0.26
2022-09-28T11:53:33.436Z,0.35
2022-09-28T11:56:41.401Z,0.37
2022-09-28T11:59:23.402Z,0.18
2022-09-28T12:01:58.622Z,0.23
2022-09-28T12:04:47.827Z,0.24
2022-09-28T12:08:05.081Z,0.21
2022-09-28T12:11:05.362Z,0.13
2022-09-28T12:14:00.914Z,0.08
2022-09-28T12:17:04.112Z,-0.17
2022-09-28T12:19:31.027Z,0.21
2022-09-28T12:22:03.113Z,0.11
2022-09-28T12:24:40.415Z,-0.05
2022-09-28T12:27:21.657Z,-0.07
2022-09-28T12:30:10.028Z,0.04
2022-09-28T12:32:57.548Z,-0.11
2022-09-28T12:35:41.014Z,-0.04
2022-09-28T12:39:08.365Z,-0.31
2022-09-28T12:42:16.785Z,-0.14
2022-09-28T12:45:06.319Z,-0.15
2022-09-28T12:47:54.709Z,-0.21
2022-09-28T12:50:39.333Z,-0.21
2022-09-28T12:53:42.369Z,-0.25
2022-09-28T12:57:03.912Z,-0.57
2022-09-28T12:59:38.165Z,-0.28
2022-09-28T13:02:42.324Z,-0.20
2022-09-28T13:05:45.021Z,-0.25
2022-09-28T13:08:31.615Z,-0.47
2022-09-28T13:11:33.969Z,-0.35
2022-09-28T13:14:24.260Z,-0.40
2022-09-28T13:17:12.032Z,-0.50
2022-09-28T13:19:49.654Z,-0.43
2022-09-28T13:22:29.509Z,-0.57
2022-09-28T13:25:05.439Z,-0.57
2022-09-28T13:27:38.410Z,-0.54
2022-09-28T13:30:08.709Z,-0.70
2022-09-28T13:32:39.760Z,-0.63
2022-09-28T13:35:21.775Z,-0.63
2022-09-28T13:38:19.330Z,-0.52
2022-09-28T13:41:10.157Z,-0.63
2022-09-28T13:44:01.825Z,-0.52
2022-09-28T13:46:48.402Z,-0.57
2022-09-28T13:49:46.386Z,-0.83
2022-09-28T13:52:24.823Z,-0.87
2022-09-28T13:55:07.638Z,-0.67
2022-09-28T13:57:47.089Z,-0.70
2022-09-28T14:00:46.759Z,-0.93
2022-09-28T14:03:22.044Z,-0.75
2022-09-28T14:06:30.385Z,-1.14
2022-09-28T14:09:27.788Z,-0.89
2022-09-28T14:11:59.857Z,-1.12
2022-09-28T14:14:47.201Z,-0.72
2022-09-28T14:17:24.842Z,-0.78
2022-09-28T14:20:05.305Z,-0.98
2022-09-28T14:23:01.677Z,-0.86
2022-09-28T14:25:36.928Z,-0.89
2022-09-28T14:28:27.279Z,-0.68
2022-09-28T14:30:59.333Z,-0.71
2022-09-28T14:33:30.382Z,-0.99
2022-09-28T14:36:41.464Z,-0.67
2022-09-28T14:39:51.381Z,-1.01
2022-09-28T14:42:25.101Z,-0.73
2022-09-28T14:45:07.528Z,-0.63
2022-09-28T14:47:41.489Z,-0.60
2022-09-28T14:50:25.388Z,-0.75
2022-09-28T14:53:12.961Z,-0.74
2022-09-28T14:55:52.695Z,-0.69
2022-09-28T14:58:24.590Z,-0.76
2022-09-28T15:01:02.046Z,-0.65
2022-09-28T15:03:33.970Z,-0.66
2022-09-28T15:06:02.595Z,-0.74
2022-09-28T15:08:41.396Z,-0.71
2022-09-28T15:11:22.497Z,-0.72
2022-09-28T15:13:56.564Z,-0.60
2022-09-28T15:16:25.659Z,-0.75
2022-09-28T15:19:20.356Z,-0.57
2022-09-28T15:21:52.061Z,-0.68
2022-09-28T15:24:32.452Z,-0.54
2022-09-28T15:27:02.654Z,-0.53
2022-09-28T15:29:34.201Z,-0.61
2022-09-28T15:32:03.003Z,-0.58
2022-09-28T15:34:53.335Z,-0.68
2022-09-28T15:37:29.427Z,-0.70
2022-09-28T15:40:00.137Z,-0.70
2022-09-28T15:42:29.226Z,-0.70
2022-09-28T15:45:08.921Z,-0.76
2022-09-28T15:47:39.449Z,-0.88
2022-09-28T15:50:31.068Z,-0.73
2022-09-28T15:53:05.720Z,-0.97
2022-09-28T15:55:40.143Z,-0.87
2022-09-28T15:58:22.199Z,-0.86
2022-09-28T16:01:12.815Z,-1.06
2022-09-28T16:03:43.609Z,-1.03
2022-09-28T16:06:12.476Z,-1.10
2022-09-28T16:08:46.387Z,-1.14
2022-09-28T16:11:28.769Z,-1.28
2022-09-28T16:14:09.810Z,-0.93
2022-09-28T16:16:46.816Z,-1.17
2022-09-28T16:19:33.161Z,-0.90
2022-09-28T16:22:07.343Z,-0.97
2022-09-28T16:24:39.198Z,-1.09
2022-09-28T16:27:23.015Z,-1.00
2022-09-28T16:30:22.576Z,-1.16
2022-09-28T16:33:08.901Z,-1.00
2022-09-28T16:35:43.809Z,-0.97
2022-09-28T16:38:16.468Z,-1.05
2022-09-28T16:40:48.639Z,-1.12
2022-09-28T16:43:37.354Z,-1.16
2022-09-28T16:46:12.686Z,-1.26
2022-09-28T16:48:51.813Z,-1.17
2022-09-28T16:51:23.053Z,-1.25
2022-09-28T16:54:10.125Z,-1.58
2022-09-28T16:56:39.000Z,-1.73
2022-09-28T16:59:13.750Z,-1.17
2022-09-28T17:01:44.503Z,-1.32
2022-09-28T17:04:13.479Z,-1.27
2022-09-28T17:06:44.061Z,-1.31
2022-09-28T17:09:15.842Z,-1.52
2022-09-28T17:11:45.267Z,-1.38
2022-09-28T17:14:14.894Z,-1.52
2022-09-28T17:17:06.483Z,-1.31
2022-09-28T17:19:33.008Z,-1.45
2022-09-28T17:22:01.697Z,-1.52
2022-09-28T17:24:30.305Z,-1.66
2022-09-28T17:27:01.490Z,-2.33
2022-09-28T17:29:31.206Z,-1.41
2022-09-28T17:31:59.970Z,-1.41
2022-09-28T17:34:28.886Z,-1.52
2022-09-28T17:36:57.787Z,-1.63
2022-09-28T17:39:26.627Z,-1.55
2022-09-28T17:41:55.146Z,-1.46
2022-09-28T17:44:23.991Z,-1.58
2022-09-28T17:46:53.863Z,-1.69
2022-09-28T17:49:22.525Z,-1.67
2022-09-28T17:51:51.091Z,-1.75
2022-09-28T17:54:21.893Z,-1.83
2022-09-28T17:56:50.774Z,-1.67
2022-09-28T17:59:19.971Z,-1.69
2022-09-28T18:01:48.881Z,-1.85
2022-09-28T18:04:47.156Z,-1.89
2022-09-28T18:07:07.106Z,-1.82
2022-09-28T18:09:35.666Z,-1.83
2022-09-28T18:12:06.746Z,-1.83
2022-09-28T18:14:39.895Z,-1.88
2022-09-28T18:17:08.386Z,-1.80
2022-09-28T18:19:37.228Z,-1.90
2022-09-28T18:22:05.805Z,-1.95
2022-09-28T18:24:34.324Z,-1.84
2022-09-28T18:27:05.486Z,-1.93
2022-09-28T18:29:33.986Z,-2.10
2022-09-28T18:32:03.193Z,-1.95
2022-09-28T18:34:32.045Z,-1.99
2022-09-28T18:37:00.546Z,-1.92
2022-09-28T18:39:29.504Z,-2.22
2022-09-28T18:41:58.931Z,-2.04
2022-09-28T18:44:27.783Z,-2.13
2022-09-28T18:46:56.507Z,-2.34
2022-09-28T18:49:25.728Z,-1.97
2022-09-28T18:51:54.248Z,-2.29
2022-09-28T18:54:24.198Z,-1.99
2022-09-28T18:56:57.154Z,-2.26
2022-09-28T18:59:29.317Z,-2.15
2022-09-28T19:01:58.377Z,-2.17
2022-09-28T19:04:27.088Z,-2.25
2022-09-28T19:06:56.144Z,-2.19
2022-09-28T19:09:25.718Z,-2.14
2022-09-28T19:11:54.313Z,-2.27
2022-09-28T19:14:22.918Z,-2.44
2022-09-28T19:16:51.708Z,-2.53
2022-09-28T19:19:21.369Z,-2.23
2022-09-28T19:21:50.071Z,-2.46
2022-09-28T19:24:19.657Z,-2.45
2022-09-28T19:26:49.222Z,-2.30
2022-09-28T19:29:17.672Z,-2.31
2022-09-28T19:31:46.508Z,-2.46
2022-09-28T19:34:15.194Z,-2.31
2022-09-28T19:36:46.272Z,-2.20
2022-09-28T19:39:16.077Z,-2.41
2022-09-28T19:41:52.110Z,-2.30
2022-09-28T19:44:25.727Z,-2.40
2022-09-28T19:47:01.750Z,-2.31
2022-09-28T19:49:45.448Z,-2.45
2022-09-28T19:52:17.722Z,-2.48
2022-09-28T19:54:57.465Z,-2.34
2022-09-28T19:57:28.815Z,-2.46
2022-09-28T20:00:02.113Z,-2.55
2022-09-28T20:02:34.522Z,-2.57
2022-09-28T20:05:04.015Z,-2.48
2022-09-28T20:07:34.017Z,-2.38
2022-09-28T20:10:02.784Z,-2.65
2022-09-28T20:12:31.378Z,-2.46
2022-09-28T20:15:00.086Z,-2.57
2022-09-28T20:17:28.629Z,-2.72
2022-09-28T20:19:58.268Z,-2.61
2022-09-28T20:22:26.760Z,-2.90
2022-09-28T20:24:55.157Z,-2.58
2022-09-28T20:27:26.344Z,-2.67
2022-09-28T20:29:55.242Z,-2.75
2022-09-28T20:32:23.909Z,-2.72
2022-09-28T20:34:52.563Z,-2.96
2022-09-28T20:37:21.243Z,-3.45
2022-09-28T20:39:49.645Z,-2.80
2022-09-28T20:42:18.185Z,-2.70
2022-09-28T20:44:46.685Z,-2.63
2022-09-28T20:47:15.223Z,-2.75
2022-09-28T20:49:44.987Z,-2.84
2022-09-28T20:52:13.652Z,-2.72
2022-09-28T20:54:42.226Z,-2.70
2022-09-28T20:57:20.853Z,-2.72
2022-09-28T20:59:54.334Z,-2.84
2022-09-28T21:02:23.519Z,-2.92
2022-09-28T21:04:52.283Z,-2.89
2022-09-28T21:07:21.086Z,-2.91
2022-09-28T21:09:49.544Z,-2.96
2022-09-28T21:12:18.955Z,-2.80
2022-09-28T21:14:47.409Z,-3.13
2022-09-28T21:17:16.178Z,-2.81
2022-09-28T21:19:44.869Z,-2.81
2022-09-28T21:22:13.489Z,-3.23
2022-09-28T21:24:42.112Z,-3.25
2022-09-28T21:27:10.649Z,-2.95
2022-09-28T21:29:39.189Z,-2.95
2022-09-28T21:32:08.743Z,-3.02
2022-09-28T21:34:37.624Z,-2.99
2022-09-28T21:37:06.727Z,-2.96
2022-09-28T21:39:35.313Z,-2.97
2022-09-28T21:42:03.953Z,-3.05
2022-09-28T21:44:32.701Z,-3.21
2022-09-28T21:47:01.173Z,-3.22
2022-09-28T21:49:29.977Z,-3.00
2022-09-28T21:51:58.623Z,-2.95
2022-09-28T21:54:29.680Z,-3.13
2022-09-28T21:56:58.448Z,-2.95
2022-09-28T21:59:26.982Z,-2.98
2022-09-28T22:01:55.659Z,-3.03
2022-09-28T22:04:24.286Z,-3.07
2022-09-28T22:06:53.075Z,-3.06
2022-09-28T22:09:21.574Z,-3.14
2022-09-28T22:11:50.381Z,-3.15
2022-09-28T22:14:19.058Z,-3.11
2022-09-28T22:16:47.754Z,-3.03
2022-09-28T22:19:16.443Z,-3.11
2022-09-28T22:21:45.123Z,-3.18
2022-09-28T22:24:13.982Z,-3.06
2022-09-28T22:26:42.862Z,-3.20
2022-09-28T22:29:11.813Z,-3.12
2022-09-28T22:31:42.358Z,-3.13
2022-09-28T22:34:11.078Z,-3.14
2022-09-28T22:36:39.486Z,-3.14
2022-09-28T22:39:08.213Z,-3.27
2022-09-28T22:41:36.758Z,-3.27
2022-09-28T22:44:05.632Z,-3.18
2022-09-28T22:46:34.309Z,-3.07
2022-09-28T22:49:03.018Z,-3.27
2022-09-28T22:51:32.233Z,-3.00
2022-09-28T22:54:01.958Z,-2.87
2022-09-28T22:56:30.734Z,-2.86
2022-09-28T22:59:03.014Z,-2.83
2022-09-28T23:01:31.735Z,-2.76
2022-09-28T23:04:00.617Z,-2.66
2022-09-28T23:06:33.855Z,-2.71
2022-09-28T23:09:02.727Z,-2.74
2022-09-28T23:11:31.351Z,-2.72
2022-09-28T23:14:01.236Z,-2.89
2022-09-28T23:16:30.850Z,-2.81
2022-09-28T23:18:59.729Z,-2.95
2022-09-28T23:21:29.121Z,-2.91
2022-09-28T23:24:02.326Z,-3.06
2022-09-28T23:26:33.216Z,-3.05
2022-09-28T23:29:01.914Z,-3.13
2022-09-28T23:31:32.475Z,-3.33
2022-09-28T23:34:03.075Z,-3.01
2022-09-28T23:36:32.835Z,-3.29
2022-09-28T23:39:01.611Z,-3.14
2022-09-28T23:41:30.487Z,-3.03
2022-09-28T23:43:59.028Z,-3.17
2022-09-28T23:46:28.066Z,-3.22
2022-09-28T23:48:56.930Z,-3.23
2022-09-28T23:51:25.694Z,-3.10
2022-09-28T23:53:54.557Z,-3.21
2022-09-28T23:56:24.026Z,-3.32
2022-09-28T23:58:52.549Z,-3.28
